Agat, GU

9:39 PM ChST on April 21, 2015 (GMT +1000)
Jeffs Pirates Cove, Guam | | Change Station
CLOSE
Current Station
Personal Weather Station
Location: Ipan Talofofo, GU
Elevation: 27 ft
Nearby Weather Stations

Elev 27 ft 13.36 °N, 144.77 °E | Updated 4 seconds ago

Partly Cloudy
Partly Cloudy
82.4 °F
Feels Like 92 °F
N
15.0
Wind Variable Wind from NE
Gusts 18.0 mph

Today
High -- | Low -- °F
--% Chance of Precip.
Yesterday
High -- | Low -- °F
Precip. -- in
6:05 AM 6:35 PM
Waxing Crescent, 10% visible
Pressure 29.89 in
Visibility 10.0 miles
Clouds Few 1700 ft
Heat Index 92 °F
Dew Point 78 °F
Humidity 87%
Rainfall 0.04 in
Snow Depth Not available.
UV 0.0 out of 12
Pollen Not available.
Air Quality Not available.
Flu Activity Regional
METAR PGUM 211054Z 06008KT 10SM FEW017 27/23 A2991 RMK AO2 SLP120 T02670233

More Conditions Fewer Conditions

Pressure 29.89 in
Visibility 10.0 miles
Clouds Few 1700 ft
Heat Index 92 °F
Dew Point 78 °F
Humidity 87%
Rainfall 0.04 in
Snow Depth Not available.
UV 0.0 out of 12
Pollen Not available.
Air Quality Not available.
Flu Activity Regional
METAR PGUM 211054Z 06008KT 10SM FEW017 27/23 A2991 RMK AO2 SLP120 T02670233

More Conditions Fewer Conditions

10-Day Weather Forecast

Almanac

Astronomy

Apr. 21, 2015 Rise Set
Actual Time
Civil Twilight
Nautical Twilight
Astronomical Twilight
Moon
Length of Visible Light
Length of Day
Tomorrow will be .
, % of the Moon is Illuminated

Today's Extremes

State Highs State Lows

Community

WunderPhotos

Upload Photos

1,815,348 photos uploaded!

WunderBlogs® & News

Nearby

Air Quality

  Air Quality AQ Index Pollutant
Not available.

Snow Depth

Station Depth Elevation

Earthquake Activity

City Distance Mag. Time & Date
Minimum magnitude displayed is 2.5.

Coastal Water Temperatures

Place Temperature

Stations

Nearby Weather Stations

Station Location Temp. Windchill Dew Point Humidity Wind Precip. Elev Updated Type